KPNC/PNC METAR and TAF weather

Enter ICAO airport designator
Station Type Date Time Source
KPNC METAR 2020/07/07 08:53 UTC NOAA

KPNC 070853Z AUTO 12004KT 10SM CLR 24/21 A2997 RMK AO2 SLP135 T02390206 58001


Station Type Date Time Source
KPNC Decoded METAR 2020/07/07 08:53 UTC NOAA

PONCA CITY MUNICIPAL AIRPORT, OK, United States (KPNC) 36-44N 97-06W 308M
Jul 07, 2020 - 04:53 AM EDT / 2020.07.07 0853 UTC
Wind: from the ESE (120 degrees) at 5 MPH (4 KT):0
Visibility: 10 mile(s):0
Sky conditions: clear
Temperature: 75.0 F (23.9 C)
Dew Point: 69.1 F (20.6 C)
Relative Humidity: 81%
Pressure (altimeter): 29.97 in. Hg (1014 hPa)
Pressure tendency: 0.00 inches (0.1 hPa) lower than three hours ago
ob: KPNC 070853Z AUTO 12004KT 10SM CLR 24/21 A2997 RMK AO2 SLP135 T02390206 58001
cycle: 9

Station Type Date Time Source
KPNC TAF 2020/07/07 06:22 UTC NOAA

TAF KPNC 070520Z 0706/0806 11006KT P6SM SKC
FM071500 13010KT P6SM SCT050

Example: see airport list